Time;durP1;ratioP1;P1;durP2;ratioP2;P2;SDS_P1;SDS_P2;PMS_P1;PMS_P2;Temp;Humidity;BMP_temperature;BMP_pressure;BME280_temperature;BME280_humidity;BME280_pressure;Samples;Min_cycle;Max_cycle;Signal;HPM_P1;HPM_P2
2023/04/13 00:02:16;;;;;;;5.43;3.92;;;6.30;99.90;;;;;;5073666;28;20088;-82
2023/04/13 00:04:42;;;;;;;3.80;3.13;;;6.20;99.90;;;;;;5073930;28;20087;-82
2023/04/13 00:07:13;;;;;;;3.90;3.08;;;6.10;99.90;;;;;;5073918;28;20056;-83
2023/04/13 00:09:40;;;;;;;3.97;3.60;;;6.00;99.90;;;;;;5073785;28;20496;-83
2023/04/13 00:12:06;;;;;;;8.60;4.35;;;5.90;99.90;;;;;;5073855;28;20045;-80
2023/04/13 00:14:32;;;;;;;6.32;4.20;;;5.90;99.90;;;;;;5089450;28;20159;-83
2023/04/13 00:16:58;;;;;;;5.97;3.95;;;5.90;99.90;;;;;;5073794;28;20091;-81
2023/04/13 00:19:24;;;;;;;5.47;4.80;;;6.00;99.90;;;;;;5073983;28;20048;-82
2023/04/13 00:21:52;;;;;;;4.45;3.85;;;6.00;99.90;;;;;;5072659;28;20053;-82
2023/04/13 00:24:18;;;;;;;5.63;4.30;;;6.10;99.90;;;;;;5073048;28;20052;-83
2023/04/13 00:26:45;;;;;;;5.47;4.55;;;6.10;99.90;;;;;;5072583;28;20044;-80
2023/04/13 00:29:11;;;;;;;4.35;3.85;;;6.20;99.90;;;;;;5073529;28;20067;-82
2023/04/13 00:31:37;;;;;;;5.18;3.78;;;6.30;99.90;;;;;;5073475;28;20094;-82
2023/04/13 00:34:03;;;;;;;8.57;4.03;;;6.30;99.90;;;;;;5073374;28;20044;-81
2023/04/13 00:36:28;;;;;;;4.05;3.65;;;6.40;99.90;;;;;;5073029;28;20044;-80
2023/04/13 00:38:56;;;;;;;5.10;3.67;;;6.50;99.90;;;;;;5072805;28;20056;-82
2023/04/13 00:41:23;;;;;;;5.75;3.88;;;6.70;99.90;;;;;;5073531;28;20052;-83
2023/04/13 00:43:49;;;;;;;5.10;3.50;;;6.70;99.90;;;;;;5072047;28;20115;-82
2023/04/13 00:46:21;;;;;;;4.63;3.88;;;6.70;99.90;;;;;;5073401;28;20125;-82
2023/04/13 00:48:47;;;;;;;4.45;3.97;;;6.70;99.90;;;;;;5071571;28;20058;-82
2023/04/13 00:51:14;;;;;;;4.78;3.78;;;6.80;99.90;;;;;;5072716;28;20473;-82
2023/04/13 00:53:42;;;;;;;4.43;4.00;;;6.80;99.90;;;;;;5072394;28;20145;-83
2023/04/13 00:56:08;;;;;;;4.20;3.80;;;6.90;99.90;;;;;;5073315;28;20044;-81
2023/04/13 00:58:34;;;;;;;5.20;3.90;;;7.00;99.90;;;;;;5071317;28;20550;-81
2023/04/13 01:01:01;;;;;;;4.68;4.22;;;7.00;99.90;;;;;;5090458;28;20052;-80
2023/04/13 01:03:28;;;;;;;5.35;4.82;;;7.10;99.90;;;;;;5072328;28;20555;-81
2023/04/13 01:06:26;;;;;;;5.85;5.25;;;7.10;99.90;;;;;;5072691;28;20048;-81
2023/04/13 01:09:00;;;;;;;4.95;3.70;;;7.00;99.90;;;;;;5073036;28;20037;-80
2023/04/13 01:11:55;;;;;;;4.10;3.70;;;7.00;99.90;;;;;;5072761;28;20114;-81
2023/04/13 01:14:36;;;;;;;5.30;4.13;;;6.90;99.90;;;;;;5072350;28;20054;-82
2023/04/13 01:17:09;;;;;;;4.22;3.47;;;6.80;99.90;;;;;;5073167;28;20040;-83
2023/04/13 01:19:44;;;;;;;7.38;4.00;;;6.80;99.90;;;;;;5072636;28;20122;-82
2023/04/13 01:22:13;;;;;;;6.57;4.80;;;6.80;99.90;;;;;;5073010;28;20123;-83
2023/04/13 01:25:07;;;;;;;6.57;4.78;;;6.80;99.90;;;;;;5072405;28;20478;-82
2023/04/13 01:27:54;;;;;;;5.10;4.60;;;6.70;99.90;;;;;;5072737;28;20060;-81
2023/04/13 01:30:23;;;;;;;7.25;4.15;;;7.00;99.90;;;;;;5072884;28;20059;-81
2023/04/13 01:32:51;;;;;;;5.90;3.75;;;6.70;99.90;;;;;;5072492;28;20052;-81
2023/04/13 01:35:18;;;;;;;5.25;3.65;;;6.70;99.90;;;;;;5071240;28;20540;-81
2023/04/13 01:37:45;;;;;;;4.90;3.90;;;6.60;99.90;;;;;;5071867;28;20123;-81
2023/04/13 01:40:12;;;;;;;5.00;3.30;;;6.50;99.90;;;;;;5072749;28;20537;-81
2023/04/13 01:42:47;;;;;;;3.67;3.33;;;6.50;99.90;;;;;;5072322;28;20073;-80
2023/04/13 01:45:25;;;;;;;4.90;3.42;;;6.50;99.90;;;;;;5072683;28;20037;-80
2023/04/13 01:48:14;;;;;;;3.40;3.08;;;6.50;99.90;;;;;;5072595;28;20482;-81
2023/04/13 01:50:44;;;;;;;5.65;3.40;;;6.40;99.90;;;;;;5072031;28;20048;-81
2023/04/13 01:53:18;;;;;;;3.38;2.97;;;6.40;99.90;;;;;;5072896;28;20044;-81
2023/04/13 01:55:44;;;;;;;3.67;3.17;;;6.40;99.90;;;;;;5071795;28;20067;-79
2023/04/13 01:58:12;;;;;;;3.92;2.97;;;6.40;99.90;;;;;;5072235;28;20040;-80
2023/04/13 02:00:39;;;;;;;5.38;3.35;;;6.40;99.90;;;;;;5071617;28;20055;-81
2023/04/13 02:03:08;;;;;;;6.25;3.15;;;6.30;99.90;;;;;;5072602;28;20055;-81
2023/04/13 02:05:39;;;;;;;6.07;3.50;;;6.40;99.90;;;;;;5071713;28;20047;-82
2023/04/13 02:08:05;;;;;;;3.65;2.75;;;6.30;99.90;;;;;;5072541;28;20075;-80
2023/04/13 02:10:33;;;;;;;3.45;3.15;;;6.40;99.90;;;;;;5074534;28;20068;-80
2023/04/13 02:13:08;;;;;;;3.63;2.38;;;6.40;99.90;;;;;;5076151;28;20049;-80
2023/04/13 02:15:34;;;;;;;3.20;2.45;;;6.40;99.90;;;;;;5076743;28;20044;-81
2023/04/13 02:18:00;;;;;;;5.20;2.83;;;6.30;99.90;;;;;;5075062;28;20059;-81
2023/04/13 02:20:31;;;;;;;3.97;2.80;;;6.30;99.90;;;;;;5075925;28;20048;-80
2023/04/13 02:22:57;;;;;;;5.20;2.60;;;6.30;99.90;;;;;;5075331;28;20056;-79
2023/04/13 02:25:24;;;;;;;3.63;3.05;;;6.30;99.90;;;;;;5074763;28;20047;-79
2023/04/13 02:27:50;;;;;;;3.83;2.72;;;6.30;99.90;;;;;;5075882;28;20504;-81
2023/04/13 02:30:16;;;;;;;3.58;2.60;;;6.40;99.90;;;;;;5075556;28;20052;-80
2023/04/13 02:32:46;;;;;;;3.40;2.70;;;6.30;99.90;;;;;;5075877;28;20045;-80
2023/04/13 02:35:12;;;;;;;3.20;2.90;;;6.40;99.90;;;;;;5074461;28;20084;-80
2023/04/13 02:37:39;;;;;;;4.68;2.90;;;6.30;99.90;;;;;;5075567;28;20090;-80
2023/04/13 02:40:07;;;;;;;3.75;2.65;;;6.30;99.90;;;;;;5075476;28;20056;-80
2023/04/13 02:42:33;;;;;;;4.25;2.85;;;6.30;99.90;;;;;;5075526;28;20052;-81
2023/04/13 02:44:59;;;;;;;4.93;2.63;;;6.30;99.90;;;;;;5075286;28;20048;-81
2023/04/13 02:47:25;;;;;;;6.20;3.08;;;6.20;99.90;;;;;;5074595;28;20048;-80
2023/04/13 02:49:51;;;;;;;2.97;2.55;;;6.30;99.90;;;;;;5075499;28;20063;-82
2023/04/13 02:52:16;;;;;;;3.15;2.50;;;6.30;99.90;;;;;;5075749;28;20044;-80
2023/04/13 02:54:42;;;;;;;5.88;3.42;;;6.30;99.90;;;;;;5075606;28;20044;-81
2023/04/13 02:57:14;;;;;;;4.07;2.83;;;6.40;99.90;;;;;;5075316;28;20093;-80
2023/04/13 02:59:40;;;;;;;4.20;2.67;;;6.40;99.90;;;;;;5074220;28;20141;-80
2023/04/13 03:02:07;;;;;;;2.85;2.55;;;6.30;99.90;;;;;;5074016;28;20044;-81
2023/04/13 03:04:33;;;;;;;6.30;3.53;;;6.30;99.90;;;;;;5090643;28;20044;-81
2023/04/13 03:06:59;;;;;;;3.38;2.53;;;6.30;99.90;;;;;;5075366;28;20044;-81
2023/04/13 03:09:25;;;;;;;4.18;2.47;;;6.30;99.90;;;;;;5075161;28;20043;-81
2023/04/13 03:11:51;;;;;;;6.43;3.55;;;6.30;99.90;;;;;;5074926;28;20044;-81
2023/04/13 03:14:20;;;;;;;3.85;2.63;;;6.30;99.90;;;;;;5075420;28;20051;-81
2023/04/13 03:16:46;;;;;;;4.35;3.30;;;6.30;99.90;;;;;;5075149;28;20059;-80
2023/04/13 03:19:12;;;;;;;3.38;2.65;;;6.30;99.90;;;;;;5074853;28;20052;-80
2023/04/13 03:21:37;;;;;;;4.03;3.20;;;6.30;99.90;;;;;;5073788;28;20052;-81
2023/04/13 03:24:04;;;;;;;3.25;2.70;;;6.30;99.90;;;;;;5073754;28;20045;-82
2023/04/13 03:26:29;;;;;;;4.38;2.90;;;6.40;99.90;;;;;;5075001;28;20131;-80
2023/04/13 03:28:55;;;;;;;4.30;1.90;;;6.40;99.90;;;;;;5073648;28;20098;-81
2023/04/13 03:31:21;;;;;;;2.60;2.40;;;6.40;99.90;;;;;;5074617;28;20082;-80
2023/04/13 03:33:47;;;;;;;3.63;2.38;;;6.40;99.90;;;;;;5074542;28;20056;-80
2023/04/13 03:36:12;;;;;;;2.85;2.13;;;6.50;99.90;;;;;;5074822;28;20040;-81
2023/04/13 03:38:38;;;;;;;5.38;2.28;;;6.40;99.90;;;;;;5074423;28;20040;-81
2023/04/13 03:41:04;;;;;;;2.72;2.28;;;6.40;99.90;;;;;;5074700;28;20496;-81
2023/04/13 03:43:30;;;;;;;2.83;2.28;;;6.40;99.90;;;;;;5074367;28;20095;-81
2023/04/13 03:45:56;;;;;;;2.83;2.55;;;6.50;99.90;;;;;;5074283;28;20051;-82
2023/04/13 03:48:21;;;;;;;2.50;2.25;;;6.50;99.90;;;;;;5074255;28;20067;-81
2023/04/13 03:50:47;;;;;;;2.95;2.25;;;6.50;99.90;;;;;;5074492;28;20048;-80
2023/04/13 03:53:13;;;;;;;3.63;2.72;;;6.50;99.90;;;;;;5074675;28;20455;-80
2023/04/13 03:55:39;;;;;;;3.45;3.15;;;6.50;99.90;;;;;;5074435;28;20044;-80
2023/04/13 03:58:04;;;;;;;3.40;2.20;;;6.50;99.90;;;;;;5074220;28;20405;-81
2023/04/13 04:00:30;;;;;;;2.50;2.30;;;6.50;99.90;;;;;;5074245;28;20048;-81
2023/04/13 04:02:56;;;;;;;3.47;2.15;;;6.50;99.90;;;;;;5074127;28;20048;-81
2023/04/13 04:05:21;;;;;;;3.67;2.40;;;6.50;99.90;;;;;;5074185;28;20068;-81
2023/04/13 04:07:47;;;;;;;4.10;3.03;;;6.50;99.90;;;;;;5074463;28;20442;-80
2023/04/13 04:10:13;;;;;;;2.65;2.45;;;6.60;99.90;;;;;;5074349;28;20123;-80
2023/04/13 04:12:38;;;;;;;5.32;2.40;;;6.60;99.90;;;;;;5073894;28;20048;-76
2023/04/13 04:15:05;;;;;;;4.28;2.40;;;6.60;99.90;;;;;;5074514;28;20044;-81
2023/04/13 04:17:31;;;;;;;2.38;2.17;;;6.60;99.90;;;;;;5073694;28;20536;-81
2023/04/13 04:19:56;;;;;;;2.80;2.38;;;6.60;99.90;;;;;;5072715;28;20044;-81
2023/04/13 04:22:28;;;;;;;2.90;1.95;;;6.60;99.90;;;;;;5074137;28;20044;-82
2023/04/13 04:24:57;;;;;;;3.70;2.20;;;6.50;99.90;;;;;;5073579;28;20040;-81
2023/04/13 04:27:25;;;;;;;2.70;2.50;;;6.60;99.90;;;;;;5074210;28;20052;-81
2023/04/13 04:29:51;;;;;;;2.78;2.13;;;6.50;99.90;;;;;;5073574;28;20110;-81
2023/04/13 04:32:18;;;;;;;2.92;2.40;;;6.50;99.90;;;;;;5073330;28;20454;-81
2023/04/13 04:34:45;;;;;;;4.40;2.42;;;6.50;99.90;;;;;;5073519;28;20040;-81
2023/04/13 04:37:12;;;;;;;2.45;2.25;;;6.50;99.90;;;;;;5073686;28;20137;-81
2023/04/13 04:39:43;;;;;;;2.83;2.45;;;6.40;99.90;;;;;;5073330;28;20048;-81
2023/04/13 04:42:09;;;;;;;3.83;2.50;;;6.30;99.90;;;;;;5072988;28;20442;-81
2023/04/13 04:44:36;;;;;;;4.95;2.20;;;6.30;99.90;;;;;;5075978;28;20048;-81
2023/04/13 04:47:03;;;;;;;2.45;2.25;;;6.30;99.90;;;;;;5078518;28;20131;-81
2023/04/13 04:49:29;;;;;;;2.92;2.47;;;6.20;99.90;;;;;;5076377;28;20056;-81
2023/04/13 04:51:56;;;;;;;2.60;2.40;;;6.30;99.90;;;;;;5073950;28;20054;-81
2023/04/13 04:54:22;;;;;;;3.83;2.45;;;6.20;99.90;;;;;;5074619;28;20398;-81
2023/04/13 04:56:49;;;;;;;4.93;2.72;;;6.20;99.90;;;;;;5073530;28;20048;-81
2023/04/13 04:59:16;;;;;;;2.85;2.53;;;6.10;99.90;;;;;;5073687;28;20060;-81
2023/04/13 05:01:42;;;;;;;3.83;2.78;;;6.10;99.90;;;;;;5073084;28;20523;-81
2023/04/13 05:04:08;;;;;;;3.42;2.72;;;6.10;99.90;;;;;;5073083;28;20041;-81
2023/04/13 05:06:34;;;;;;;4.82;3.47;;;6.10;99.90;;;;;;5071960;28;20064;-81
2023/04/13 05:09:03;;;;;;;3.50;3.20;;;6.10;99.90;;;;;;5072854;28;20048;-81
2023/04/13 05:11:29;;;;;;;5.47;3.25;;;6.10;99.90;;;;;;5073412;28;20135;-81
2023/04/13 05:13:55;;;;;;;3.60;3.15;;;6.20;99.90;;;;;;5072745;28;20045;-81
2023/04/13 05:16:22;;;;;;;4.40;3.50;;;6.20;99.90;;;;;;5073134;28;20118;-81
2023/04/13 05:18:48;;;;;;;4.53;3.85;;;6.30;99.90;;;;;;5071877;28;20060;-81
2023/04/13 05:21:14;;;;;;;4.75;3.97;;;6.30;99.90;;;;;;5072673;28;20048;-81
2023/04/13 05:23:41;;;;;;;4.63;4.03;;;6.30;99.90;;;;;;5072514;28;20051;-81
2023/04/13 05:26:11;;;;;;;10.75;4.85;;;6.30;99.90;;;;;;5072323;28;20520;-81
2023/04/13 05:28:37;;;;;;;4.18;3.63;;;6.20;99.90;;;;;;5072274;28;20511;-81
2023/04/13 05:31:09;;;;;;;5.70;4.78;;;6.20;99.90;;;;;;5072712;28;20137;-81
2023/04/13 05:33:36;;;;;;;7.03;4.95;;;6.20;99.90;;;;;;5072193;28;20050;-81
2023/04/13 05:36:03;;;;;;;6.63;4.78;;;6.30;99.90;;;;;;5072571;28;20041;-81
2023/04/13 05:38:29;;;;;;;5.90;4.43;;;6.40;99.90;;;;;;5072506;28;20045;-81
2023/04/13 05:40:56;;;;;;;5.47;4.45;;;6.40;99.90;;;;;;5072808;28;20084;-81
2023/04/13 05:43:22;;;;;;;7.90;4.47;;;6.40;99.90;;;;;;5071346;28;20483;-81
2023/04/13 05:45:48;;;;;;;8.25;4.43;;;6.50;99.90;;;;;;5070791;28;20048;-81
2023/04/13 05:48:14;;;;;;;6.50;4.75;;;6.60;99.90;;;;;;5072234;28;20527;-80
2023/04/13 05:50:39;;;;;;;7.28;4.95;;;6.60;99.90;;;;;;5072319;28;20049;-82
2023/04/13 05:53:05;;;;;;;6.57;4.07;;;6.70;99.90;;;;;;5072814;28;20048;-81
2023/04/13 05:55:31;;;;;;;5.10;4.30;;;6.60;99.90;;;;;;5072336;28;20442;-82
2023/04/13 05:57:58;;;;;;;5.72;4.72;;;6.70;99.90;;;;;;5072174;28;20048;-81
2023/04/13 06:00:24;;;;;;;6.25;4.63;;;6.60;99.90;;;;;;5072247;28;20105;-81
2023/04/13 06:02:50;;;;;;;4.60;4.10;;;6.70;99.90;;;;;;5071443;28;20492;-81
2023/04/13 06:05:17;;;;;;;5.47;4.05;;;6.70;99.90;;;;;;5087852;28;20041;-81
2023/04/13 06:07:45;;;;;;;4.53;4.00;;;6.80;99.90;;;;;;5072070;28;20178;-82
2023/04/13 06:10:15;;;;;;;6.93;4.80;;;6.80;99.90;;;;;;5071298;28;20123;-81
2023/04/13 06:12:47;;;;;;;5.70;4.20;;;6.90;99.90;;;;;;5072801;28;20050;-80
2023/04/13 06:15:14;;;;;;;6.07;4.50;;;7.10;99.90;;;;;;5072255;28;20052;-81
2023/04/13 06:17:39;;;;;;;8.02;5.03;;;7.30;99.90;;;;;;5072039;28;20131;-81
2023/04/13 06:20:06;;;;;;;10.13;4.07;;;7.50;99.90;;;;;;5072204;28;20087;-81
2023/04/13 06:22:32;;;;;;;4.53;3.58;;;7.60;99.90;;;;;;5072215;28;20132;-81
2023/04/13 06:24:58;;;;;;;6.05;3.85;;;7.70;99.90;;;;;;5070540;28;20139;-81
2023/04/13 06:27:23;;;;;;;6.43;3.72;;;7.70;99.90;;;;;;5071981;28;20056;-80
2023/04/13 06:29:50;;;;;;;7.32;3.83;;;7.70;99.90;;;;;;5072043;28;20075;-81
2023/04/13 06:32:15;;;;;;;4.53;4.03;;;7.70;99.90;;;;;;5070989;28;20063;-81
2023/04/13 06:34:44;;;;;;;6.05;3.80;;;7.80;99.90;;;;;;5071976;28;20131;-81
2023/04/13 06:37:10;;;;;;;5.45;3.85;;;7.80;99.90;;;;;;5071671;28;20115;-81
2023/04/13 06:39:36;;;;;;;9.73;5.38;;;7.90;99.90;;;;;;5072421;28;20048;-81
2023/04/13 06:42:05;;;;;;;6.47;3.53;;;7.90;99.90;;;;;;5072470;28;20052;-82
2023/04/13 06:44:31;;;;;;;7.07;4.55;;;7.90;99.90;;;;;;5072444;28;20045;-81
2023/04/13 06:46:57;;;;;;;7.85;4.47;;;7.80;99.90;;;;;;5088237;28;20079;-81
2023/04/13 06:49:23;;;;;;;6.50;3.67;;;7.90;99.90;;;;;;5072347;28;20083;-76
2023/04/13 06:51:48;;;;;;;5.95;3.38;;;7.90;99.90;;;;;;5071810;28;20135;-82
2023/04/13 06:54:14;;;;;;;5.90;4.10;;;8.00;99.90;;;;;;5070691;28;20052;-81
2023/04/13 06:56:40;;;;;;;4.65;4.07;;;8.10;99.90;;;;;;5071699;28;20434;-81
2023/04/13 06:59:05;;;;;;;6.47;4.00;;;8.20;99.90;;;;;;5074217;28;20127;-81
2023/04/13 07:01:31;;;;;;;6.65;4.30;;;8.20;99.90;;;;;;5075200;28;20049;-82
2023/04/13 07:03:57;;;;;;;8.50;4.15;;;8.10;99.90;;;;;;5075491;28;20393;-82
2023/04/13 07:06:23;;;;;;;6.78;4.38;;;8.20;99.90;;;;;;5075027;28;20045;-82
2023/04/13 07:08:49;;;;;;;6.47;4.30;;;8.10;99.90;;;;;;5075324;28;20109;-80
2023/04/13 07:11:15;;;;;;;5.38;4.18;;;8.20;99.90;;;;;;5074850;28;20487;-81
2023/04/13 07:13:41;;;;;;;8.65;4.70;;;8.40;99.90;;;;;;5074900;28;20040;-81
2023/04/13 07:16:07;;;;;;;7.88;4.25;;;8.70;99.90;;;;;;5074694;28;20047;-81
2023/04/13 07:18:34;;;;;;;9.00;4.28;;;8.90;99.90;;;;;;5074428;28;20052;-81
2023/04/13 07:21:00;;;;;;;7.25;4.35;;;8.90;99.90;;;;;;5075174;28;20081;-81
2023/04/13 07:23:26;;;;;;;7.97;4.43;;;8.90;99.90;;;;;;5074452;28;20059;-81
2023/04/13 07:25:52;;;;;;;5.82;3.83;;;8.90;99.90;;;;;;5074625;28;20037;-80
2023/04/13 07:28:17;;;;;;;5.07;3.28;;;8.90;99.90;;;;;;5073603;28;20445;-81
2023/04/13 07:30:44;;;;;;;4.15;3.72;;;8.80;99.90;;;;;;5074586;28;20044;-82
2023/04/13 07:33:10;;;;;;;5.93;3.55;;;8.80;99.90;;;;;;5074573;28;20531;-81
2023/04/13 07:35:37;;;;;;;5.45;3.42;;;8.80;99.90;;;;;;5074668;28;20041;-81
2023/04/13 07:38:03;;;;;;;7.38;3.55;;;9.20;99.90;;;;;;5073558;28;20040;-81
2023/04/13 07:40:28;;;;;;;4.13;3.13;;;9.30;99.90;;;;;;5075030;28;20479;-81
2023/04/13 07:42:54;;;;;;;5.93;3.28;;;9.60;99.90;;;;;;5073598;28;20041;-82
2023/04/13 07:45:20;;;;;;;6.13;3.10;;;10.10;99.90;;;;;;5074346;28;20442;-81
2023/04/13 07:47:47;;;;;;;5.15;3.42;;;10.30;99.90;;;;;;5074296;28;20053;-81
2023/04/13 07:50:13;;;;;;;4.90;2.75;;;10.20;99.90;;;;;;5075228;28;20055;-81
2023/04/13 07:52:39;;;;;;;5.95;2.78;;;10.10;99.90;;;;;;5074294;28;20036;-81
2023/04/13 07:55:06;;;;;;;4.15;2.50;;;9.90;99.90;;;;;;5074849;28;20436;-81
2023/04/13 07:57:32;;;;;;;3.75;2.35;;;9.70;99.90;;;;;;5076069;28;20045;-81
2023/04/13 07:59:58;;;;;;;3.40;2.10;;;9.70;99.90;;;;;;5083798;28;20114;-82
2023/04/13 08:02:24;;;;;;;4.95;2.80;;;10.60;99.90;;;;;;5081777;28;20045;-82
2023/04/13 08:04:51;;;;;;;4.78;2.40;;;11.50;99.90;;;;;;5080948;28;20087;-82
2023/04/13 08:07:17;;;;;;;3.65;2.30;;;11.80;99.90;;;;;;5078610;28;20540;-81
2023/04/13 08:09:45;;;;;;;5.53;2.55;;;11.40;99.90;;;;;;5074260;28;20044;-81
2023/04/13 08:12:11;;;;;;;4.78;2.20;;;10.80;99.90;;;;;;5073964;28;20048;-81
2023/04/13 08:14:36;;;;;;;4.00;2.03;;;10.20;99.90;;;;;;5074869;28;20135;-81
2023/04/13 08:17:05;;;;;;;5.45;2.38;;;9.90;99.90;;;;;;5073344;28;20040;-81
2023/04/13 08:19:31;;;;;;;3.58;1.90;;;9.60;99.90;;;;;;5074373;28;20127;-82
2023/04/13 08:21:57;;;;;;;5.15;2.25;;;9.60;99.90;;;;;;5074370;28;20083;-84
2023/04/13 08:24:24;;;;;;;3.05;2.70;;;9.40;99.90;;;;;;5073677;28;20131;-82
2023/04/13 08:26:51;;;;;;;3.58;2.45;;;9.60;99.90;;;;;;5073964;28;20048;-80
2023/04/13 08:29:17;;;;;;;2.53;2.30;;;10.60;99.90;;;;;;5106684;28;20513;-82
2023/04/13 08:31:43;;;;;;;4.70;2.22;;;11.80;99.90;;;;;;5073846;28;20052;-83
2023/04/13 08:34:10;;;;;;;2.63;1.88;;;12.50;99.90;;;;;;5073781;28;20131;-82
2023/04/13 08:36:37;;;;;;;3.03;1.98;;;12.90;99.90;;;;;;5073523;28;20055;-81
2023/04/13 08:39:04;;;;;;;4.20;1.80;;;13.20;99.90;;;;;;5073585;28;20119;-75
2023/04/13 08:41:32;;;;;;;2.75;1.73;;;13.30;99.90;;;;;;5073118;28;20501;-82
2023/04/13 08:44:04;;;;;;;4.43;2.22;;;13.10;99.90;;;;;;5073305;28;20052;-83
2023/04/13 08:46:30;;;;;;;2.90;1.48;;;12.50;99.90;;;;;;5089161;28;20555;-82
2023/04/13 08:48:58;;;;;;;3.08;1.70;;;12.20;99.90;;;;;;5073530;28;20052;-82
2023/04/13 08:51:27;;;;;;;3.88;1.60;;;11.90;99.90;;;;;;5073422;28;20052;-82
2023/04/13 08:53:54;;;;;;;1.60;1.50;;;12.10;99.90;;;;;;5073332;28;20052;-82
2023/04/13 08:56:21;;;;;;;4.38;1.77;;;12.30;99.90;;;;;;5073241;28;20525;-82
2023/04/13 08:58:51;;;;;;;1.70;1.60;;;11.70;99.90;;;;;;5073182;28;20094;-82
2023/04/13 09:01:19;;;;;;;1.80;1.30;;;11.50;99.90;;;;;;5072295;28;20130;-82
2023/04/13 09:03:58;;;;;;;3.67;2.03;;;11.10;99.90;;;;;;5072301;28;20052;-82
2023/04/13 09:06:32;;;;;;;5.05;1.95;;;10.90;99.90;;;;;;5072367;28;20037;-82
2023/04/13 09:08:59;;;;;;;2.97;1.60;;;11.20;99.90;;;;;;5072155;28;20052;-82
2023/04/13 09:11:24;;;;;;;2.15;1.15;;;11.20;99.90;;;;;;5071891;28;20076;-82
2023/04/13 09:13:51;;;;;;;1.42;1.33;;;10.90;99.90;;;;;;5072778;28;20055;-82
2023/04/13 09:16:21;;;;;;;1.60;1.20;;;10.90;99.90;;;;;;5072435;28;20052;-82
2023/04/13 09:18:51;;;;;;;1.05;1.00;;;10.80;99.90;;;;;;5088240;28;20045;-83
2023/04/13 09:21:17;;;;;;;1.25;0.93;;;11.30;99.90;;;;;;5072643;28;20049;-83
2023/04/13 09:23:56;;;;;;;3.25;1.20;;;11.60;99.90;;;;;;5073237;28;20047;-82
2023/04/13 09:26:22;;;;;;;1.10;1.00;;;12.60;99.90;;;;;;5072727;28;20044;-82
2023/04/13 09:28:50;;;;;;;0.95;0.55;;;13.40;99.90;;;;;;5071734;28;20055;-82
2023/04/13 09:31:16;;;;;;;1.95;0.65;;;14.40;99.90;;;;;;5072261;28;20056;-82
2023/04/13 09:33:47;;;;;;;0.60;0.60;;;14.60;99.90;;;;;;5072195;28;20053;-82
2023/04/13 09:36:15;;;;;;;0.40;0.40;;;14.80;99.90;;;;;;5071852;28;20063;-82
2023/04/13 09:38:52;;;;;;;0.88;0.70;;;15.20;99.90;;;;;;5071681;28;20079;-82
2023/04/13 09:41:49;;;;;;;5.22;1.00;;;15.60;99.90;;;;;;5073145;28;20084;-83
2023/04/13 09:44:19;;;;;;;0.80;0.75;;;15.30;99.90;;;;;;5059861;28;20049;-82
2023/04/13 09:47:07;;;;;;;2.05;1.00;;;15.40;99.90;;;;;;5073105;28;20111;-82
2023/04/13 09:49:40;;;;;;;2.42;1.10;;;14.30;99.90;;;;;;5072538;28;20064;-82
2023/04/13 09:52:17;;;;;;;2.92;0.93;;;13.40;99.90;;;;;;5071518;28;20052;-83
2023/04/13 09:54:42;;;;;;;2.45;0.80;;;12.60;99.90;;;;;;5072546;28;20052;-83
2023/04/13 09:57:08;;;;;;;0.40;0.40;;;12.20;99.90;;;;;;5071320;28;20052;-81
2023/04/13 09:59:34;;;;;;;2.60;0.70;;;11.90;99.90;;;;;;5072329;28;20500;-82
2023/04/13 10:02:02;;;;;;;1.15;0.75;;;12.00;99.90;;;;;;5071539;28;20041;-81
2023/04/13 10:04:29;;;;;;;0.80;0.60;;;11.90;99.90;;;;;;5072174;28;20109;-83
2023/04/13 10:06:56;;;;;;;1.80;0.88;;;11.00;99.90;;;;;;5072268;28;20051;-81
2023/04/13 10:09:24;;;;;;;1.20;1.00;;;10.10;99.90;;;;;;5087754;28;20126;-80
2023/04/13 10:11:50;;;;;;;1.45;0.70;;;9.60;99.90;;;;;;5072236;28;20043;-82
2023/04/13 10:14:24;;;;;;;1.55;0.82;;;9.20;99.90;;;;;;5071049;28;20470;-80
2023/04/13 10:17:23;;;;;;;1.42;0.63;;;9.00;99.90;;;;;;5072667;28;20114;-81
2023/04/13 10:19:52;;;;;;;2.58;0.70;;;8.90;99.90;;;;;;5072884;28;20057;-81
2023/04/13 10:22:19;;;;;;;1.30;0.60;;;9.10;99.90;;;;;;5072517;28;20041;-80
2023/04/13 10:24:45;;;;;;;1.83;0.77;;;9.00;99.90;;;;;;5087551;28;20044;-79
2023/04/13 10:27:17;;;;;;;1.15;0.80;;;9.00;99.90;;;;;;5072015;28;20088;-80
2023/04/13 10:29:43;;;;;;;2.55;0.90;;;9.00;99.90;;;;;;5072075;28;20169;-79
2023/04/13 10:32:24;;;;;;;2.58;1.20;;;9.20;99.90;;;;;;5091025;28;20056;-81
2023/04/13 10:34:50;;;;;;;1.27;0.80;;;9.50;99.90;;;;;;5075306;28;20071;-82
2023/04/13 10:37:18;;;;;;;1.65;1.00;;;10.10;99.90;;;;;;5075933;28;20507;-79
2023/04/13 10:39:45;;;;;;;0.80;0.77;;;10.00;99.90;;;;;;5076218;28;20048;-79
2023/04/13 10:42:12;;;;;;;3.13;1.50;;;9.60;99.90;;;;;;5075782;28;20123;-79
2023/04/13 10:44:48;;;;;;;2.50;0.95;;;9.30;99.90;;;;;;5075791;28;20040;-79
2023/04/13 10:47:19;;;;;;;2.15;0.60;;;9.00;99.90;;;;;;5076106;28;20044;-80
2023/04/13 10:49:46;;;;;;;1.95;0.65;;;8.80;99.90;;;;;;5075851;28;20058;-82
2023/04/13 10:52:13;;;;;;;1.17;0.80;;;8.80;99.90;;;;;;5091081;28;20040;-79
2023/04/13 10:54:40;;;;;;;2.45;0.85;;;8.70;99.90;;;;;;5075437;28;20075;-82
2023/04/13 10:57:08;;;;;;;1.00;0.68;;;8.60;99.90;;;;;;5075859;28;20048;-79
2023/04/13 10:59:52;;;;;;;1.65;0.80;;;8.70;99.90;;;;;;5075596;28;20044;-80
2023/04/13 11:02:18;;;;;;;3.50;1.25;;;8.90;99.90;;;;;;5075463;28;20274;-81
2023/04/13 11:04:46;;;;;;;3.47;1.23;;;9.10;99.90;;;;;;5075343;28;20076;-79
2023/04/13 11:07:22;;;;;;;1.48;1.38;;;9.50;99.90;;;;;;5075749;28;20040;-77
2023/04/13 11:09:49;;;;;;;4.00;1.95;;;9.70;99.90;;;;;;5075292;28;20076;-80
2023/04/13 11:12:16;;;;;;;2.70;1.48;;;10.00;99.90;;;;;;5075205;28;20052;-79
2023/04/13 11:14:46;;;;;;;4.00;2.00;;;10.30;99.90;;;;;;5075010;28;20051;-80
2023/04/13 11:17:14;;;;;;;7.20;2.20;;;10.30;99.90;;;;;;5074805;28;20101;-78
2023/04/13 11:19:47;;;;;;;4.35;2.13;;;10.60;99.90;;;;;;5075189;28;20087;-79
2023/04/13 11:22:17;;;;;;;;;;;10.70;99.90;;;;;;5076484;28;20513;-79
2023/04/13 11:24:44;;;;;;;6.95;2.83;;;10.80;99.90;;;;;;5075520;28;19927;-78
2023/04/13 11:27:20;;;;;;;5.30;3.05;;;11.20;99.90;;;;;;5074391;28;20471;-77
2023/04/13 11:29:57;;;;;;;8.63;3.58;;;11.30;99.90;;;;;;5075317;28;20051;-77
2023/04/13 11:32:24;;;;;;;5.07;2.28;;;11.30;99.90;;;;;;5074747;28;20040;-79
2023/04/13 11:35:03;;;;;;;8.40;3.30;;;11.30;99.90;;;;;;5074765;28;20485;-79
2023/04/13 11:37:33;;;;;;;5.18;2.95;;;11.20;99.90;;;;;;5074395;28;20044;-79
2023/04/13 11:40:08;;;;;;;8.07;3.35;;;11.10;99.90;;;;;;5074622;28;20059;-78
2023/04/13 11:42:37;;;;;;;9.05;3.25;;;11.20;99.90;;;;;;5073070;28;20055;-77
2023/04/13 11:45:05;;;;;;;15.02;3.33;;;11.10;99.90;;;;;;5075084;28;20036;-77
2023/04/13 11:47:31;;;;;;;9.80;3.40;;;11.00;99.90;;;;;;5074899;28;20040;-77
2023/04/13 11:49:57;;;;;;;5.70;2.60;;;11.20;99.90;;;;;;5074347;28;20371;-77
2023/04/13 11:52:24;;;;;;;8.50;2.60;;;11.30;99.90;;;;;;5073437;28;20496;-77
2023/04/13 11:54:50;;;;;;;5.90;2.88;;;11.40;99.90;;;;;;5073359;28;20055;-76
2023/04/13 11:57:17;;;;;;;6.53;2.72;;;11.40;99.90;;;;;;5073359;28;20059;-77
2023/04/13 11:59:43;;;;;;;7.28;2.22;;;11.50;99.90;;;;;;5073213;28;20477;-76
2023/04/13 12:02:09;;;;;;;5.40;2.10;;;11.30;99.90;;;;;;5074218;28;20052;-75
2023/04/13 12:04:39;;;;;;;3.10;2.15;;;11.30;99.90;;;;;;5074309;28;20041;-77
2023/04/13 12:07:13;;;;;;;6.55;1.83;;;11.30;99.90;;;;;;5074108;28;20132;-80
2023/04/13 12:09:41;;;;;;;5.18;1.90;;;11.30;99.90;;;;;;5074028;28;20507;-82
2023/04/13 12:12:14;;;;;;;6.13;2.33;;;11.20;99.90;;;;;;5073942;28;20044;-82
2023/04/13 12:14:41;;;;;;;7.30;2.20;;;11.30;99.90;;;;;;5074101;28;20052;-81
2023/04/13 12:17:10;;;;;;;7.25;2.88;;;11.40;99.90;;;;;;5074021;28;20044;-79
2023/04/13 12:19:39;;;;;;;9.05;2.50;;;11.70;99.90;;;;;;5073760;28;20095;-80
2023/04/13 12:22:05;;;;;;;7.93;2.42;;;11.90;99.90;;;;;;5073230;28;20128;-80
2023/04/13 12:24:33;;;;;;;5.03;1.80;;;12.00;99.90;;;;;;5106950;28;20083;-80
2023/04/13 12:27:03;;;;;;;5.30;1.98;;;11.80;99.90;;;;;;5073558;28;20084;-81
2023/04/13 12:29:29;;;;;;;3.47;1.80;;;11.70;99.90;;;;;;5073463;28;20101;-79
2023/04/13 12:32:02;;;;;;;6.22;2.10;;;11.80;99.90;;;;;;5056454;28;20059;-80
2023/04/13 12:34:28;;;;;;;7.47;3.00;;;11.70;99.90;;;;;;5072495;28;20049;-79
2023/04/13 12:36:56;;;;;;;4.03;1.73;;;11.70;99.90;;;;;;5072360;28;20093;-81
2023/04/13 12:39:22;;;;;;;7.32;2.10;;;11.70;99.90;;;;;;5073401;28;20048;-78
2023/04/13 12:41:48;;;;;;;5.95;2.38;;;11.60;99.90;;;;;;5073248;28;20135;-79
2023/04/13 12:44:14;;;;;;;4.45;2.00;;;11.40;99.90;;;;;;5073089;28;20123;-79
2023/04/13 12:46:39;;;;;;;5.82;2.08;;;11.40;99.90;;;;;;5073063;28;20079;-81
2023/04/13 12:49:05;;;;;;;3.63;2.00;;;11.30;99.90;;;;;;5073631;28;20064;-81
2023/04/13 12:51:31;;;;;;;6.68;2.28;;;11.20;99.90;;;;;;5072127;28;20056;-81
2023/04/13 12:53:57;;;;;;;3.67;2.13;;;11.20;99.90;;;;;;5072616;28;20058;-81
2023/04/13 12:56:23;;;;;;;5.97;2.60;;;11.20;99.90;;;;;;5072879;28;20127;-79
2023/04/13 12:58:49;;;;;;;4.03;2.80;;;11.30;99.90;;;;;;5072941;28;20084;-79